Time;durP1;ratioP1;P1;durP2;ratioP2;P2;SDS_P1;SDS_P2;PMS_P1;PMS_P2;Temp;Humidity;BMP_temperature;BMP_pressure;BME280_temperature;BME280_humidity;BME280_pressure;Samples;Min_cycle;Max_cycle;Signal;HPM_P1;HPM_P2
2023/02/19 00:01:46;;;;;;;12.13;7.95;;;9.40;99.90;;;;;;5064777;28;20041;-65
2023/02/19 00:04:18;;;;;;;10.27;6.95;;;9.40;99.90;;;;;;5052125;28;20045;-65
2023/02/19 00:06:47;;;;;;;9.20;6.78;;;9.40;99.90;;;;;;5069764;28;20394;-65
2023/02/19 00:09:16;;;;;;;8.88;6.45;;;9.40;99.90;;;;;;5070934;28;20083;-66
2023/02/19 00:11:45;;;;;;;8.70;5.97;;;9.30;99.90;;;;;;5067032;28;20060;-65
2023/02/19 00:14:18;;;;;;;8.50;5.78;;;9.30;99.90;;;;;;5070244;28;20467;-65
2023/02/19 00:16:46;;;;;;;8.38;5.80;;;9.30;99.90;;;;;;5071827;28;20410;-66
2023/02/19 00:19:16;;;;;;;8.13;5.10;;;9.20;99.90;;;;;;5071238;28;20040;-65
2023/02/19 00:21:44;;;;;;;6.93;4.78;;;9.20;99.90;;;;;;5070304;28;20052;-65
2023/02/19 00:24:12;;;;;;;8.18;5.25;;;9.20;99.90;;;;;;5070919;28;20036;-66
2023/02/19 00:26:40;;;;;;;6.78;4.60;;;9.10;99.90;;;;;;5071228;28;20072;-66
2023/02/19 00:29:12;;;;;;;7.30;5.03;;;9.10;99.90;;;;;;5071447;28;20032;-65
2023/02/19 00:31:41;;;;;;;7.85;5.70;;;9.10;99.90;;;;;;5065578;28;20041;-65
2023/02/19 00:34:10;;;;;;;8.15;5.40;;;9.10;99.90;;;;;;5067833;28;20041;-66
2023/02/19 00:36:39;;;;;;;7.10;5.15;;;9.00;99.90;;;;;;5070647;28;20097;-65
2023/02/19 00:39:10;;;;;;;7.80;5.10;;;8.90;99.90;;;;;;5069621;28;20036;-65
2023/02/19 00:41:37;;;;;;;7.97;5.43;;;8.90;99.90;;;;;;5055490;28;20055;-65
2023/02/19 00:44:07;;;;;;;8.52;5.72;;;8.80;99.90;;;;;;5051335;28;20411;-65
2023/02/19 00:46:37;;;;;;;8.00;5.75;;;8.80;99.90;;;;;;5042183;28;20094;-69
2023/02/19 00:49:05;;;;;;;9.40;5.68;;;8.80;99.90;;;;;;5044894;28;20551;-67
2023/02/19 00:51:35;;;;;;;8.10;6.05;;;8.70;99.90;;;;;;5030295;28;20037;-65
2023/02/19 00:54:04;;;;;;;7.45;5.10;;;8.70;99.90;;;;;;5029952;28;20067;-65
2023/02/19 00:56:31;;;;;;;8.38;5.80;;;8.70;99.90;;;;;;5034603;28;20041;-65
2023/02/19 00:58:59;;;;;;;7.80;5.85;;;8.70;99.90;;;;;;5038042;28;20496;-65
2023/02/19 01:01:26;;;;;;;9.10;5.53;;;8.70;99.90;;;;;;5048206;28;20088;-65
2023/02/19 01:03:54;;;;;;;7.22;5.15;;;8.70;99.90;;;;;;5044835;28;20049;-65
2023/02/19 01:06:22;;;;;;;8.80;6.00;;;8.70;99.90;;;;;;5027938;28;20056;-65
2023/02/19 01:08:49;;;;;;;7.97;5.88;;;8.60;99.90;;;;;;5029291;28;20065;-65
2023/02/19 01:11:17;;;;;;;12.07;6.03;;;8.60;99.90;;;;;;5029797;28;20551;-66
2023/02/19 01:13:44;;;;;;;8.82;6.35;;;8.60;99.90;;;;;;5044770;28;20416;-66
2023/02/19 01:16:18;;;;;;;8.20;5.82;;;8.60;99.90;;;;;;5029864;28;20080;-66
2023/02/19 01:18:47;;;;;;;9.05;6.38;;;8.60;99.90;;;;;;5029652;28;20037;-65
2023/02/19 01:21:18;;;;;;;9.55;6.47;;;8.50;99.90;;;;;;5047812;28;20051;-65
2023/02/19 01:23:46;;;;;;;8.73;6.40;;;8.50;99.90;;;;;;5047748;28;20127;-65
2023/02/19 01:26:17;;;;;;;8.55;6.30;;;8.40;99.90;;;;;;5034443;28;20038;-65
2023/02/19 01:28:46;;;;;;;9.13;5.90;;;8.40;99.90;;;;;;5028160;28;20411;-66
2023/02/19 01:31:17;;;;;;;9.38;6.55;;;8.50;99.90;;;;;;5031625;28;20045;-65
2023/02/19 01:33:54;;;;;;;8.73;6.50;;;8.50;99.90;;;;;;5048244;28;20045;-65
2023/02/19 01:36:21;;;;;;;7.60;5.25;;;8.50;99.90;;;;;;5048739;28;20780;-64
2023/02/19 01:38:49;;;;;;;9.48;6.43;;;8.50;99.90;;;;;;5050813;28;20037;-65
2023/02/19 01:41:20;;;;;;;10.10;7.20;;;8.50;99.90;;;;;;5042913;28;20087;-64
2023/02/19 01:44:01;;;;;;;10.18;6.97;;;8.50;99.90;;;;;;5036768;28;20033;-70
2023/02/19 01:46:33;;;;;;;10.90;7.32;;;8.60;99.90;;;;;;5053330;28;20060;-69
2023/02/19 01:49:07;;;;;;;9.90;6.70;;;8.60;99.90;;;;;;5053667;28;20037;-67
2023/02/19 01:51:37;;;;;;;10.85;7.60;;;8.60;99.90;;;;;;5054099;28;20055;-67
2023/02/19 01:54:07;;;;;;;10.70;7.20;;;8.50;99.90;;;;;;5052650;28;20067;-67
2023/02/19 01:56:37;;;;;;;10.65;7.05;;;8.50;99.90;;;;;;5034500;28;20045;-68
2023/02/19 01:59:06;;;;;;;10.48;7.53;;;8.40;99.90;;;;;;5048258;28;20124;-65
2023/02/19 02:01:37;;;;;;;10.85;7.40;;;8.50;99.90;;;;;;5034286;28;20053;-65
2023/02/19 02:04:05;;;;;;;11.18;7.82;;;8.40;99.90;;;;;;5032914;28;20069;-65
2023/02/19 02:06:55;;;;;;;11.63;7.72;;;8.40;99.90;;;;;;5026076;28;20045;-65
2023/02/19 02:12:14;;;;;;;9.73;6.73;;;8.40;99.90;;;;;;5069260;28;20067;-66
2023/02/19 02:14:46;;;;;;;11.45;7.15;;;8.40;99.90;;;;;;5051984;28;20091;-66
2023/02/19 02:17:29;;;;;;;9.45;6.60;;;8.50;99.90;;;;;;5054264;28;20492;-66
2023/02/19 02:20:40;;;;;;;8.77;5.93;;;8.40;99.90;;;;;;5043064;28;20036;-67
2023/02/19 02:23:19;;;;;;;8.50;5.60;;;8.50;99.90;;;;;;5051547;28;20071;-67
2023/02/19 02:25:55;;;;;;;8.57;5.85;;;8.50;99.90;;;;;;5039158;28;20554;-66
2023/02/19 02:29:00;;;;;;;9.20;5.68;;;8.50;99.90;;;;;;5068147;28;20036;-65
2023/02/19 02:31:39;;;;;;;8.55;5.95;;;8.50;99.90;;;;;;5051933;28;20197;-66
2023/02/19 02:34:15;;;;;;;7.47;5.27;;;8.50;99.90;;;;;;5053728;28;20096;-65
2023/02/19 02:36:46;;;;;;;8.07;5.05;;;8.50;99.90;;;;;;5069378;28;20049;-65
2023/02/19 02:39:18;;;;;;;7.60;5.38;;;8.50;99.90;;;;;;5051226;28;20053;-66
2023/02/19 02:47:40;;;;;;;7.32;5.03;;;8.50;99.90;;;;;;5051863;28;20090;-67
2023/02/19 02:50:14;;;;;;;7.43;4.80;;;8.50;99.90;;;;;;5050636;28;20068;-67
2023/02/19 02:55:35;;;;;;;8.13;5.05;;;8.50;99.90;;;;;;5030008;28;20049;-66
2023/02/19 02:58:04;;;;;;;7.88;5.10;;;8.50;99.90;;;;;;5032102;28;20054;-67
2023/02/19 03:03:22;;;;;;;7.80;4.65;;;8.50;99.90;;;;;;5052251;28;20048;-66
2023/02/19 03:05:54;;;;;;;7.72;4.88;;;8.50;99.90;;;;;;5039634;28;20107;-66
2023/02/19 03:08:30;;;;;;;7.03;4.60;;;8.50;99.90;;;;;;5048598;28;20034;-67
2023/02/19 03:20:27;;;;;;;6.78;4.13;;;8.60;99.90;;;;;;5032852;28;20444;-65
2023/02/19 03:22:57;;;;;;;6.63;4.30;;;8.60;99.90;;;;;;5051489;28;20094;-65
2023/02/19 03:29:32;;;;;;;6.35;4.43;;;8.60;99.90;;;;;;5030616;28;20144;-67
2023/02/19 03:31:31;;;;;;;6.60;4.55;;;8.70;99.90;;;;;;5026253;28;20147;-66
2023/02/19 03:34:04;;;;;;;5.70;3.90;;;8.70;99.90;;;;;;5028297;28;20113;-67
2023/02/19 03:36:41;;;;;;;5.88;4.38;;;8.70;99.90;;;;;;5014144;28;20389;-67
2023/02/19 03:39:13;;;;;;;6.70;4.82;;;8.70;99.90;;;;;;5045945;28;20041;-67
2023/02/19 03:42:05;;;;;;;6.05;4.38;;;8.70;99.90;;;;;;5048271;28;20132;-66
2023/02/19 03:44:43;;;;;;;6.53;4.40;;;8.70;99.90;;;;;;5041917;28;20072;-66
2023/02/19 03:47:19;;;;;;;5.22;3.70;;;8.70;99.90;;;;;;5050431;28;20096;-66
2023/02/19 03:50:05;;;;;;;6.43;3.92;;;8.70;99.90;;;;;;5050912;28;20045;-66
2023/02/19 03:52:42;;;;;;;7.20;4.63;;;8.70;99.90;;;;;;5029229;28;20126;-65
2023/02/19 03:55:22;;;;;;;6.13;4.20;;;8.70;99.90;;;;;;5030910;28;20099;-66
2023/02/19 03:57:59;;;;;;;5.72;4.18;;;8.70;99.90;;;;;;5029378;28;20049;-66
2023/02/19 04:00:33;;;;;;;6.28;4.20;;;8.80;99.90;;;;;;5048630;28;20117;-66
2023/02/19 04:03:32;;;;;;;6.00;3.80;;;8.70;99.90;;;;;;5049499;28;20060;-66
2023/02/19 04:06:04;;;;;;;5.80;4.00;;;8.70;99.90;;;;;;5034257;28;20038;-67
2023/02/19 04:08:35;;;;;;;4.88;3.75;;;8.70;99.90;;;;;;5014223;28;20452;-66
2023/02/19 04:11:05;;;;;;;5.65;4.00;;;8.80;99.90;;;;;;5066248;28;20033;-65
2023/02/19 04:13:51;;;;;;;5.90;4.10;;;8.80;99.90;;;;;;5050972;28;20337;-68
2023/02/19 04:16:22;;;;;;;6.45;3.95;;;8.70;99.90;;;;;;5032333;28;20144;-66
2023/02/19 04:18:54;;;;;;;6.93;4.00;;;8.80;99.90;;;;;;5030348;28;20045;-66
2023/02/19 04:21:22;;;;;;;6.15;3.78;;;8.80;99.90;;;;;;5030886;28;20432;-67
2023/02/19 04:23:50;;;;;;;5.60;4.05;;;8.80;99.90;;;;;;5030800;28;20132;-65
2023/02/19 04:26:21;;;;;;;6.22;4.28;;;8.80;99.90;;;;;;5031076;28;20083;-66
2023/02/19 04:28:48;;;;;;;6.97;4.30;;;8.80;99.90;;;;;;5045341;28;20443;-65
2023/02/19 04:31:16;;;;;;;5.93;4.20;;;8.70;99.90;;;;;;5031930;28;20037;-65
2023/02/19 04:33:43;;;;;;;7.05;4.43;;;8.80;99.90;;;;;;5051758;28;20099;-65
2023/02/19 04:36:11;;;;;;;5.78;4.38;;;8.80;99.90;;;;;;5049619;28;20121;-66
2023/02/19 04:38:38;;;;;;;6.05;4.15;;;8.80;99.90;;;;;;5049286;28;20068;-66
2023/02/19 04:41:05;;;;;;;6.13;4.20;;;8.80;99.90;;;;;;5050067;28;20593;-65
2023/02/19 04:43:32;;;;;;;6.00;4.30;;;8.80;99.90;;;;;;5045351;28;20208;-65
2023/02/19 04:46:01;;;;;;;8.18;4.85;;;8.80;99.90;;;;;;5049283;28;20495;-65
2023/02/19 04:48:28;;;;;;;5.72;3.95;;;8.80;99.90;;;;;;5051382;28;20127;-66
2023/02/19 04:50:56;;;;;;;8.25;4.88;;;8.80;99.90;;;;;;5042941;28;20101;-65
2023/02/19 04:53:23;;;;;;;7.43;3.90;;;8.80;99.90;;;;;;5030069;28;20500;-65
2023/02/19 04:55:52;;;;;;;5.80;4.25;;;8.80;99.90;;;;;;5034852;28;20132;-66
2023/02/19 04:58:20;;;;;;;6.95;4.45;;;8.80;99.90;;;;;;5050490;28;20037;-66
2023/02/19 05:00:50;;;;;;;6.32;4.07;;;8.80;99.90;;;;;;5049198;28;20551;-67
2023/02/19 05:03:18;;;;;;;6.32;4.63;;;8.80;99.90;;;;;;5049309;28;20044;-67
2023/02/19 05:05:45;;;;;;;6.85;4.55;;;8.80;99.90;;;;;;5047082;28;20787;-66
2023/02/19 05:08:13;;;;;;;6.65;4.10;;;8.80;99.90;;;;;;5031137;28;20488;-66
2023/02/19 05:10:40;;;;;;;5.28;3.75;;;8.80;99.90;;;;;;5030496;28;20522;-66
2023/02/19 05:13:07;;;;;;;5.60;3.72;;;8.80;99.90;;;;;;5031353;28;20128;-67
2023/02/19 05:15:35;;;;;;;6.45;3.95;;;8.80;99.90;;;;;;5035069;28;20049;-65
2023/02/19 05:18:03;;;;;;;4.60;3.33;;;8.80;99.90;;;;;;5034445;28;20069;-66
2023/02/19 05:20:30;;;;;;;6.25;3.67;;;8.80;99.90;;;;;;5034010;28;20503;-65
2023/02/19 05:22:57;;;;;;;5.55;3.50;;;8.80;99.90;;;;;;5034217;28;20136;-65
2023/02/19 05:25:24;;;;;;;5.43;3.40;;;8.80;99.90;;;;;;5034210;28;20443;-65
2023/02/19 05:28:15;;;;;;;4.88;3.22;;;8.80;99.90;;;;;;5034559;28;20140;-65
2023/02/19 05:30:39;;;;;;;4.50;3.00;;;8.90;99.90;;;;;;5048987;28;20455;-65
2023/02/19 05:33:06;;;;;;;4.30;3.00;;;8.90;99.90;;;;;;5052819;28;20470;-66
2023/02/19 05:35:33;;;;;;;4.00;2.65;;;8.90;99.90;;;;;;5054493;28;20106;-66
2023/02/19 05:38:01;;;;;;;4.65;3.15;;;8.90;99.90;;;;;;5054036;28;20045;-66
2023/02/19 05:40:28;;;;;;;5.10;2.88;;;9.00;99.90;;;;;;5048270;28;20064;-65
2023/02/19 05:42:55;;;;;;;4.68;2.75;;;9.00;99.90;;;;;;5035052;28;20415;-65
2023/02/19 05:45:22;;;;;;;4.35;2.60;;;8.90;99.90;;;;;;5049111;28;20044;-65
2023/02/19 05:47:49;;;;;;;4.57;2.67;;;8.90;99.90;;;;;;5068873;28;20052;-65
2023/02/19 05:50:17;;;;;;;3.95;2.40;;;9.00;99.90;;;;;;5049577;28;20088;-66
2023/02/19 05:52:44;;;;;;;4.60;2.92;;;9.00;99.90;;;;;;5033135;28;20627;-67
2023/02/19 05:55:12;;;;;;;3.45;2.38;;;9.00;99.90;;;;;;5034434;28;20049;-65
2023/02/19 05:57:41;;;;;;;3.83;2.40;;;8.90;99.90;;;;;;5048915;28;20131;-68
2023/02/19 06:00:18;;;;;;;3.85;2.33;;;9.00;99.90;;;;;;5049858;28;20117;-65
2023/02/19 06:02:46;;;;;;;4.30;2.50;;;9.00;99.90;;;;;;5069839;28;20138;-65
2023/02/19 06:05:13;;;;;;;3.75;2.28;;;8.90;99.90;;;;;;5052450;28;20072;-66
2023/02/19 06:07:41;;;;;;;3.95;2.30;;;9.00;99.90;;;;;;5054073;28;20468;-66
2023/02/19 06:10:10;;;;;;;4.38;2.63;;;9.00;99.90;;;;;;5052599;28;20040;-66
2023/02/19 06:12:38;;;;;;;4.82;2.17;;;9.00;99.90;;;;;;5051855;28;20487;-66
2023/02/19 06:15:06;;;;;;;4.10;2.30;;;9.00;99.90;;;;;;5045055;28;20437;-65
2023/02/19 06:17:33;;;;;;;5.32;2.92;;;9.00;99.90;;;;;;5047896;28;20092;-66
2023/02/19 06:20:01;;;;;;;4.57;2.85;;;8.90;99.90;;;;;;5047870;28;20044;-66
2023/02/19 06:22:28;;;;;;;5.22;2.53;;;8.80;99.90;;;;;;5053645;28;20368;-65
2023/02/19 06:24:56;;;;;;;4.03;2.50;;;8.80;99.90;;;;;;5044729;28;20045;-65
2023/02/19 06:27:23;;;;;;;4.35;2.65;;;8.80;99.90;;;;;;5041486;28;20079;-66
2023/02/19 06:29:50;;;;;;;4.82;2.72;;;8.80;99.90;;;;;;5051378;28;20487;-65
2023/02/19 06:32:18;;;;;;;4.05;2.65;;;8.80;99.90;;;;;;5032361;28;20064;-66
2023/02/19 06:34:45;;;;;;;4.22;2.92;;;8.70;99.90;;;;;;5031997;28;20199;-66
2023/02/19 06:37:12;;;;;;;4.38;2.75;;;8.80;99.90;;;;;;5035911;28;20042;-65
2023/02/19 06:39:39;;;;;;;4.30;2.63;;;8.80;99.90;;;;;;5052148;28;20041;-65
2023/02/19 06:42:07;;;;;;;3.78;2.40;;;8.70;99.90;;;;;;5051957;28;20061;-66
2023/02/19 06:44:34;;;;;;;4.95;2.63;;;8.80;99.90;;;;;;5042047;28;20459;-67
2023/02/19 06:47:01;;;;;;;4.13;2.92;;;8.80;99.90;;;;;;5052253;28;20048;-65
2023/02/19 06:49:28;;;;;;;3.97;2.40;;;8.80;99.90;;;;;;5033592;28;20448;-65
2023/02/19 06:51:55;;;;;;;4.80;2.90;;;8.80;99.90;;;;;;5033098;28;20435;-65
2023/02/19 06:54:24;;;;;;;4.57;2.45;;;8.80;99.90;;;;;;5050365;28;20037;-65
2023/02/19 06:56:51;;;;;;;4.63;2.65;;;8.80;99.90;;;;;;5053302;28;20039;-65
2023/02/19 06:59:19;;;;;;;4.28;2.50;;;8.80;99.90;;;;;;5051337;28;20041;-66
2023/02/19 07:01:46;;;;;;;4.38;2.50;;;8.90;99.90;;;;;;5032096;28;20422;-65
2023/02/19 07:04:14;;;;;;;3.97;2.47;;;8.90;99.90;;;;;;5013408;28;20054;-65
2023/02/19 07:06:42;;;;;;;3.88;2.53;;;8.90;99.90;;;;;;5032318;28;20038;-64
2023/02/19 07:09:10;;;;;;;3.65;2.30;;;8.90;99.90;;;;;;5031773;28;20088;-63
2023/02/19 07:11:38;;;;;;;3.28;2.08;;;8.90;99.90;;;;;;5031882;28;20042;-65
2023/02/19 07:14:07;;;;;;;4.13;1.92;;;8.90;99.90;;;;;;5031950;28;20087;-66
2023/02/19 07:16:35;;;;;;;3.30;1.88;;;8.90;99.90;;;;;;5047888;28;20053;-66
2023/02/19 07:19:02;;;;;;;3.53;1.90;;;9.00;99.90;;;;;;5047081;28;20049;-65
2023/02/19 07:21:30;;;;;;;4.80;2.10;;;9.00;99.90;;;;;;5052190;28;20360;-66
2023/02/19 07:23:57;;;;;;;2.92;1.90;;;9.10;99.90;;;;;;5049797;28;20118;-66
2023/02/19 07:26:24;;;;;;;2.78;1.73;;;9.10;99.90;;;;;;5033189;28;20600;-68
2023/02/19 07:28:52;;;;;;;3.20;1.92;;;9.20;99.90;;;;;;5040020;28;20630;-66
2023/02/19 07:31:21;;;;;;;3.33;2.10;;;9.20;99.90;;;;;;5045998;28;20049;-65
2023/02/19 07:33:49;;;;;;;3.53;1.80;;;9.20;99.90;;;;;;5058508;28;20516;-66
2023/02/19 07:36:18;;;;;;;2.92;1.90;;;9.30;99.90;;;;;;5051402;28;20546;-66
2023/02/19 07:38:46;;;;;;;2.58;1.77;;;9.40;99.90;;;;;;5058132;28;20041;-68
2023/02/19 07:41:13;;;;;;;4.65;2.00;;;9.40;99.90;;;;;;5072316;28;20041;-67
2023/02/19 07:43:41;;;;;;;3.22;1.90;;;9.40;99.90;;;;;;5069766;28;20489;-66
2023/02/19 07:46:11;;;;;;;3.22;2.17;;;9.30;99.90;;;;;;5060657;28;20049;-67
2023/02/19 07:48:40;;;;;;;2.97;1.85;;;9.40;99.90;;;;;;5069205;28;20056;-68
2023/02/19 07:51:11;;;;;;;5.03;2.10;;;9.40;99.90;;;;;;5061770;28;20045;-67
2023/02/19 07:53:38;;;;;;;2.80;1.90;;;9.40;99.90;;;;;;5069991;28;20123;-69
2023/02/19 07:56:09;;;;;;;3.17;1.98;;;9.50;99.90;;;;;;5072392;28;20048;-66
2023/02/19 07:58:36;;;;;;;4.07;2.00;;;9.50;99.90;;;;;;5066515;28;20048;-66
2023/02/19 08:04:06;;;;;;;5.07;2.03;;;9.50;99.90;;;;;;5051811;28;20045;-66
2023/02/19 08:06:33;;;;;;;3.10;2.10;;;9.60;99.90;;;;;;5078158;28;20041;-66
2023/02/19 08:09:02;;;;;;;3.67;2.03;;;9.60;99.90;;;;;;5069999;28;20040;-65
2023/02/19 08:14:15;;;;;;;4.05;2.63;;;9.60;99.90;;;;;;5066808;28;20045;-67
2023/02/19 08:16:49;;;;;;;5.88;2.20;;;9.70;99.90;;;;;;5051770;28;20518;-66
2023/02/19 08:19:17;;;;;;;3.28;1.90;;;9.70;99.90;;;;;;5051256;28;20071;-66
2023/02/19 08:21:44;;;;;;;3.28;2.03;;;9.70;99.90;;;;;;5051606;28;20490;-65
2023/02/19 08:24:12;;;;;;;3.03;1.65;;;9.70;99.90;;;;;;5066512;28;20056;-65
2023/02/19 08:26:39;;;;;;;3.03;1.88;;;9.70;99.90;;;;;;5050920;28;20044;-64
2023/02/19 08:29:06;;;;;;;3.42;2.13;;;9.70;99.90;;;;;;5049895;28;20183;-66
2023/02/19 08:31:34;;;;;;;3.40;2.03;;;9.70;99.90;;;;;;5071393;28;20499;-66
2023/02/19 08:34:02;;;;;;;4.22;1.92;;;9.80;99.90;;;;;;5061063;28;20041;-68
2023/02/19 08:36:29;;;;;;;2.88;1.83;;;9.80;99.90;;;;;;5051028;28;20049;-66
2023/02/19 08:38:56;;;;;;;3.00;1.52;;;9.80;99.90;;;;;;5059928;28;20227;-65
2023/02/19 08:41:24;;;;;;;2.58;1.60;;;9.80;99.90;;;;;;5071548;28;20563;-67
2023/02/19 08:43:51;;;;;;;3.05;1.77;;;9.90;99.90;;;;;;5054520;28;20052;-66
2023/02/19 08:46:18;;;;;;;2.17;1.30;;;9.90;99.90;;;;;;5050894;28;20375;-67
2023/02/19 08:48:45;;;;;;;2.47;1.55;;;9.80;99.90;;;;;;5059497;28;20036;-66
2023/02/19 08:51:13;;;;;;;2.83;1.50;;;9.80;99.90;;;;;;5071040;28;20044;-67
2023/02/19 08:53:40;;;;;;;2.17;1.65;;;9.80;99.90;;;;;;5070633;28;20032;-65
2023/02/19 08:56:14;;;;;;;2.35;1.30;;;9.80;99.90;;;;;;5058463;28;20041;-65
2023/02/19 08:58:42;;;;;;;2.80;1.70;;;9.90;99.90;;;;;;5053976;28;20070;-68
2023/02/19 09:01:11;;;;;;;2.78;1.50;;;9.80;99.90;;;;;;5061573;28;20041;-66
2023/02/19 09:03:40;;;;;;;4.22;1.90;;;9.90;99.90;;;;;;5071464;28;20124;-67
2023/02/19 09:06:14;;;;;;;2.08;1.50;;;9.90;99.90;;;;;;5057117;28;20045;-66
2023/02/19 09:08:43;;;;;;;3.53;1.65;;;9.90;99.90;;;;;;5061394;28;20049;-65
2023/02/19 09:11:10;;;;;;;3.85;1.85;;;10.00;99.90;;;;;;5067571;28;20032;-65
2023/02/19 09:13:38;;;;;;;4.00;1.60;;;10.00;99.90;;;;;;5070741;28;20447;-65
2023/02/19 09:16:06;;;;;;;3.97;1.75;;;10.10;99.90;;;;;;5071075;28;20519;-66
2023/02/19 09:18:34;;;;;;;4.30;1.75;;;10.20;99.90;;;;;;5047921;28;20392;-64
2023/02/19 09:21:04;;;;;;;4.22;1.67;;;10.20;99.90;;;;;;5059553;28;20033;-69
2023/02/19 09:23:33;;;;;;;3.00;1.55;;;10.30;99.90;;;;;;5069057;28;20148;-67
2023/02/19 09:26:02;;;;;;;3.83;1.80;;;10.30;99.90;;;;;;5050387;28;20594;-65
2023/02/19 09:28:30;;;;;;;3.88;1.52;;;10.40;99.90;;;;;;5067170;28;20099;-65
2023/02/19 09:31:06;;;;;;;3.88;1.60;;;10.40;99.90;;;;;;5060638;28;20045;-65
2023/02/19 09:33:33;;;;;;;4.10;1.90;;;10.40;99.90;;;;;;5070462;28;20033;-65
2023/02/19 09:36:01;;;;;;;3.25;1.90;;;10.20;99.90;;;;;;5070428;28;20056;-64
2023/02/19 09:38:29;;;;;;;3.78;2.35;;;10.20;99.90;;;;;;5070688;28;20053;-65
2023/02/19 09:40:58;;;;;;;4.43;1.92;;;10.20;99.90;;;;;;5070963;28;20044;-65
2023/02/19 09:43:28;;;;;;;3.55;2.10;;;10.20;99.90;;;;;;5043423;28;20072;-67
2023/02/19 09:46:06;;;;;;;4.05;2.08;;;10.20;99.90;;;;;;5063303;28;20045;-66
2023/02/19 09:48:34;;;;;;;3.35;1.90;;;10.30;99.90;;;;;;5070714;28;20124;-66
2023/02/19 09:51:02;;;;;;;4.13;2.30;;;10.40;99.90;;;;;;5070668;28;20068;-65
2023/02/19 09:53:39;;;;;;;4.20;2.30;;;10.30;99.90;;;;;;5070187;28;20043;-66
2023/02/19 09:56:07;;;;;;;4.50;2.35;;;10.30;99.90;;;;;;5029534;28;20045;-67
2023/02/19 09:58:45;;;;;;;4.00;2.30;;;10.30;99.90;;;;;;5034712;28;20041;-66
2023/02/19 10:01:12;;;;;;;5.35;2.60;;;10.20;99.90;;;;;;5048206;28;20041;-66
2023/02/19 10:03:45;;;;;;;4.38;2.53;;;10.10;99.90;;;;;;5032888;28;20115;-66
2023/02/19 10:06:17;;;;;;;4.60;2.47;;;10.10;99.90;;;;;;5034032;28;20202;-67
2023/02/19 10:08:46;;;;;;;;;;;10.10;99.90;;;;;;5034421;28;20052;-66
2023/02/19 10:11:14;;;;;;;3.72;2.22;;;10.00;99.90;;;;;;5039445;28;20019;-66
2023/02/19 10:13:52;;;;;;;4.18;2.42;;;9.90;99.90;;;;;;5054372;28;20553;-66
2023/02/19 10:16:24;;;;;;;4.50;2.08;;;9.90;99.90;;;;;;5053255;28;20048;-66
2023/02/19 10:18:52;;;;;;;6.05;3.30;;;10.00;99.90;;;;;;5053009;28;20041;-66
2023/02/19 10:21:24;;;;;;;5.63;2.40;;;10.20;99.90;;;;;;5034762;28;20048;-66
2023/02/19 10:24:00;;;;;;;4.22;2.15;;;10.20;99.90;;;;;;5033145;28;20511;-66
2023/02/19 10:26:30;;;;;;;3.90;2.13;;;10.20;99.90;;;;;;5036249;28;20033;-69
2023/02/19 10:28:58;;;;;;;5.05;2.40;;;10.10;99.90;;;;;;5045113;28;20045;-66
2023/02/19 10:31:25;;;;;;;4.85;2.38;;;10.10;99.90;;;;;;5059707;28;20044;-66
2023/02/19 10:33:55;;;;;;;3.88;2.22;;;10.10;99.90;;;;;;5044499;28;20525;-67
2023/02/19 10:36:40;;;;;;;4.47;2.33;;;10.20;99.90;;;;;;5041239;28;20037;-67
2023/02/19 10:39:41;;;;;;;4.80;2.35;;;10.30;99.90;;;;;;5048288;28;20529;-66
2023/02/19 10:42:20;;;;;;;6.15;2.65;;;10.30;99.90;;;;;;5051162;28;20432;-66
2023/02/19 10:44:57;;;;;;;9.23;2.65;;;10.40;99.90;;;;;;5059162;28;20052;-66
2023/02/19 10:47:27;;;;;;;5.20;2.20;;;10.50;99.90;;;;;;5051340;28;20116;-66
2023/02/19 10:49:58;;;;;;;5.25;2.20;;;10.50;99.90;;;;;;5046288;28;20068;-66
2023/02/19 10:52:35;;;;;;;3.43;2.30;;;10.30;99.90;;;;;;5055963;28;20045;-67
2023/02/19 10:55:22;;;;;;;5.60;2.50;;;10.20;99.90;;;;;;5043566;28;20645;-68
2023/02/19 10:57:49;;;;;;;5.05;2.90;;;10.00;99.90;;;;;;5041972;28;20046;-66
2023/02/19 11:00:26;;;;;;;4.90;2.63;;;10.00;99.90;;;;;;5044764;28;20045;-65
2023/02/19 11:03:22;;;;;;;7.45;2.85;;;10.00;99.90;;;;;;5044353;28;20053;-66
2023/02/19 11:06:01;;;;;;;6.18;2.33;;;10.00;99.90;;;;;;5042310;28;20468;-66
2023/02/19 11:08:29;;;;;;;5.88;3.20;;;10.10;99.90;;;;;;5041704;28;20064;-66
2023/02/19 11:10:57;;;;;;;5.53;2.97;;;10.10;99.90;;;;;;5041841;28;20591;-65
2023/02/19 11:13:36;;;;;;;5.57;2.22;;;10.00;99.90;;;;;;5041982;28;20065;-66
2023/02/19 11:16:04;;;;;;;5.25;2.65;;;10.00;99.90;;;;;;5064261;28;20072;-67
2023/02/19 11:18:33;;;;;;;6.55;2.88;;;9.90;99.90;;;;;;5050945;28;20147;-66
2023/02/19 11:21:03;;;;;;;7.60;3.40;;;9.70;99.90;;;;;;5034475;28;20516;-65
2023/02/19 11:23:34;;;;;;;5.53;3.13;;;9.40;99.90;;;;;;5043458;28;20433;-66
2023/02/19 11:26:14;;;;;;;6.20;3.10;;;9.30;99.90;;;;;;5049789;28;20037;-66
2023/02/19 11:28:43;;;;;;;6.55;3.85;;;9.20;99.90;;;;;;5051188;28;20043;-67
2023/02/19 11:31:19;;;;;;;6.72;2.97;;;9.20;99.90;;;;;;5049969;28;20045;-66
2023/02/19 11:34:14;;;;;;;5.47;3.10;;;9.20;99.90;;;;;;5057803;28;20037;-70
2023/02/19 11:36:41;;;;;;;6.70;2.97;;;9.10;99.90;;;;;;5034374;28;20068;-68
2023/02/19 11:39:08;;;;;;;8.50;4.30;;;9.10;99.90;;;;;;5048968;28;20056;-69
2023/02/19 11:41:44;;;;;;;8.35;3.40;;;9.00;99.90;;;;;;5042346;28;20037;-67
2023/02/19 11:44:28;;;;;;;6.88;3.38;;;9.00;99.90;;;;;;5047050;28;20062;-67
2023/02/19 11:47:08;;;;;;;6.43;3.55;;;8.90;99.90;;;;;;5049775;28;20080;-67
2023/02/19 11:49:53;;;;;;;6.32;3.25;;;9.00;99.90;;;;;;5052150;28;20495;-67
2023/02/19 11:52:39;;;;;;;6.55;3.40;;;9.00;99.90;;;;;;5049078;28;20123;-69
2023/02/19 11:55:15;;;;;;;6.38;3.47;;;9.10;99.90;;;;;;5050869;28;20467;-66
2023/02/19 11:57:46;;;;;;;6.35;3.50;;;9.20;99.90;;;;;;5048078;28;20059;-66
2023/02/19 12:00:28;;;;;;;6.32;3.28;;;9.30;99.90;;;;;;5050694;28;20048;-67
2023/02/19 12:03:31;;;;;;;;;;;9.50;99.90;;;;;;5047355;28;20511;-66
2023/02/19 12:06:04;;;;;;;;;;;9.60;99.90;;;;;;4993110;28;20355;-67
2023/02/19 12:08:53;;;;;;;5.93;3.40;;;9.50;99.90;;;;;;5007331;28;19937;-67
2023/02/19 12:11:41;;;;;;;6.70;3.45;;;9.50;99.90;;;;;;5006559;28;20046;-68
2023/02/19 12:14:28;;;;;;;6.72;3.40;;;9.50;99.90;;;;;;5009521;28;20523;-67
2023/02/19 12:17:10;;;;;;;9.48;4.25;;;9.50;99.90;;;;;;4976770;28;20528;-67
2023/02/19 12:19:48;;;;;;;5.90;2.95;;;9.60;99.90;;;;;;5008246;28;20050;-67
2023/02/19 12:22:32;;;;;;;6.18;3.47;;;9.90;99.90;;;;;;5006899;28;20050;-68
2023/02/19 12:25:23;;;;;;;6.38;3.10;;;10.10;99.90;;;;;;4992161;28;20060;-69
2023/02/19 12:28:02;;;;;;;6.35;3.05;;;10.20;99.90;;;;;;4990784;28;20038;-67
2023/02/19 12:30:46;;;;;;;5.93;3.55;;;10.20;99.90;;;;;;5007455;28;20421;-67
2023/02/19 12:33:42;;;;;;;6.03;3.10;;;10.10;99.90;;;;;;5007379;28;20041;-68
2023/02/19 12:36:34;;;;;;;10.40;3.53;;;10.10;99.90;;;;;;5007699;28;20046;-68
2023/02/19 12:39:15;;;;;;;5.97;3.35;;;10.00;99.90;;;;;;5007074;28;20069;-68
2023/02/19 12:42:11;;;;;;;8.23;3.50;;;10.10;99.90;;;;;;5047995;28;20522;-68
2023/02/19 12:44:43;;;;;;;7.55;3.25;;;10.20;99.90;;;;;;5039857;28;20059;-67
2023/02/19 12:47:21;;;;;;;11.40;4.05;;;10.20;99.90;;;;;;5027505;28;20037;-68
2023/02/19 12:50:20;;;;;;;5.50;3.05;;;10.20;99.90;;;;;;5030858;28;20041;-69
2023/02/19 12:52:54;;;;;;;13.95;5.72;;;10.30;99.90;;;;;;5045335;28;20411;-69
2023/02/19 12:55:26;;;;;;;8.38;3.78;;;10.60;99.90;;;;;;5052039;28;20033;-70
2023/02/19 12:57:54;;;;;;;;;;;11.90;99.90;;;;;;5046096;28;20057;-69
2023/02/19 13:00:28;;;;;;;9.38;4.40;;;12.60;99.90;;;;;;5033466;28;19967;-68
2023/02/19 13:03:08;;;;;;;6.20;3.10;;;13.00;99.90;;;;;;5046383;28;20519;-69
2023/02/19 13:05:53;;;;;;;7.15;3.55;;;12.90;99.90;;;;;;5042414;28;20048;-67
2023/02/19 13:08:42;;;;;;;4.82;2.80;;;12.40;99.90;;;;;;5041302;28;20284;-68
2023/02/19 13:12:04;;;;;;;5.90;2.97;;;11.90;99.90;;;;;;5042339;28;20151;-66
2023/02/19 13:14:31;;;;;;;;;;;11.10;99.90;;;;;;4980335;28;20049;-71
2023/02/19 13:17:25;;;;;;;9.80;3.08;;;11.00;99.90;;;;;;4965413;28;20339;-67
2023/02/19 13:19:59;;;;;;;7.80;2.97;;;10.90;99.90;;;;;;5005964;28;20135;-68
2023/02/19 13:25:38;;;;;;;7.72;3.30;;;10.40;99.90;;;;;;4991454;28;20054;-69
2023/02/19 13:28:19;;;;;;;6.93;3.50;;;10.20;99.90;;;;;;4998739;28;20556;-68
2023/02/19 13:30:58;;;;;;;8.27;3.40;;;10.20;99.90;;;;;;4993636;28;20734;-68
2023/02/19 13:33:44;;;;;;;7.28;3.38;;;10.10;99.90;;;;;;4982873;28;20046;-68
2023/02/19 13:36:23;;;;;;;8.77;4.53;;;10.20;99.90;;;;;;4998527;28;20783;-68
2023/02/19 13:38:50;;;;;;;5.70;3.15;;;10.50;99.90;;;;;;5011962;28;20046;-68
2023/02/19 13:41:26;;;;;;;5.13;2.70;;;10.90;99.90;;;;;;5011426;28;20084;-68
2023/02/19 13:43:57;;;;;;;5.95;2.80;;;11.30;99.90;;;;;;4993583;28;20148;-68
2023/02/19 13:46:31;;;;;;;4.45;2.40;;;11.20;99.90;;;;;;4989140;28;20513;-70
2023/02/19 13:49:26;;;;;;;4.47;2.13;;;11.10;99.90;;;;;;4990856;28;20428;-70
2023/02/19 13:51:54;;;;;;;5.97;3.00;;;11.50;99.90;;;;;;5041899;28;20630;-68
2023/02/19 13:54:27;;;;;;;6.32;3.15;;;11.50;99.90;;;;;;5051293;28;20056;-69
2023/02/19 13:57:22;;;;;;;6.93;3.13;;;11.30;99.90;;;;;;5050494;28;20159;-70
2023/02/19 13:59:50;;;;;;;6.60;2.90;;;11.00;99.90;;;;;;5052180;28;20067;-70